createdAt,value
2017-04-06T00:00:28.622Z,7.11
2017-04-06T00:01:39.819Z,7.05
2017-04-06T00:02:50.815Z,7.03
2017-04-06T00:04:02.066Z,7.18
2017-04-06T00:05:13.066Z,7.15
2017-04-06T00:06:24.060Z,7.19
2017-04-06T00:07:35.060Z,7.15
2017-04-06T00:08:46.055Z,7.13
2017-04-06T00:09:57.116Z,7.12
2017-04-06T00:11:08.117Z,7.15
2017-04-06T00:12:19.117Z,7.23
2017-04-06T00:13:30.332Z,7.18
2017-04-06T00:14:41.320Z,7.22
2017-04-06T00:15:52.314Z,7.19
2017-04-06T00:17:03.519Z,7.22
2017-04-06T00:18:14.719Z,7.19
2017-04-06T00:19:25.938Z,7.23
2017-04-06T00:20:37.199Z,7.26
2017-04-06T00:21:48.413Z,7.23
2017-04-06T00:22:59.616Z,7.19
2017-04-06T00:24:10.611Z,7.27
2017-04-06T00:25:21.622Z,7.3
2017-04-06T00:26:32.674Z,7.37
2017-04-06T00:27:43.672Z,7.26
2017-04-06T00:28:54.869Z,7.34
2017-04-06T00:30:05.865Z,7.29
2017-04-06T00:31:16.863Z,7.22
2017-04-06T00:32:27.918Z,7.33
2017-04-06T00:33:38.911Z,7.37
2017-04-06T00:34:50.134Z,7.36
2017-04-06T00:36:01.121Z,7.34
2017-04-06T00:37:12.319Z,7.37
2017-04-06T00:38:23.567Z,7.36
2017-04-06T00:39:34.569Z,7.39
2017-04-06T00:40:45.564Z,7.37
2017-04-06T00:41:56.575Z,7.37
2017-04-06T00:43:07.568Z,7.36
2017-04-06T00:44:18.814Z,7.36
2017-04-06T00:45:29.812Z,7.39
2017-04-06T00:46:41.021Z,7.37
2017-04-06T00:47:52.020Z,7.41
2017-04-06T00:49:03.015Z,7.34
2017-04-06T00:50:14.054Z,7.36
2017-04-06T00:51:25.257Z,7.44
2017-04-06T00:52:36.252Z,7.47
2017-04-06T00:53:47.255Z,7.37
2017-04-06T00:54:58.460Z,7.52
2017-04-06T00:56:09.504Z,7.44
2017-04-06T00:57:20.701Z,7.54
2017-04-06T00:58:31.706Z,7.55
2017-04-06T00:59:42.706Z,7.44
2017-04-06T01:00:53.708Z,7.48
2017-04-06T01:02:04.755Z,7.48
2017-04-06T01:03:15.755Z,7.44
2017-04-06T01:04:26.746Z,7.49
2017-04-06T01:05:37.750Z,7.61
2017-04-06T01:06:48.747Z,7.58
2017-04-06T01:07:59.798Z,7.55
2017-04-06T01:09:10.805Z,7.58
2017-04-06T01:10:22.000Z,7.59
2017-04-06T01:11:33.005Z,7.51
2017-04-06T01:12:43.994Z,7.41
2017-04-06T01:13:55.038Z,7.44
2017-04-06T01:15:06.034Z,7.48
2017-04-06T01:16:17.034Z,7.4
2017-04-06T01:17:28.028Z,7.4
2017-04-06T01:18:39.442Z,7.34
2017-04-06T01:19:50.692Z,7.4
2017-04-06T01:21:01.683Z,7.4
2017-04-06T01:22:12.675Z,7.41
2017-04-06T01:23:23.874Z,7.34
2017-04-06T01:24:35.086Z,7.31
2017-04-06T01:25:46.337Z,7.22
2017-04-06T01:26:57.338Z,7.19
2017-04-06T01:28:08.533Z,7.19
2017-04-06T01:29:19.531Z,7.26
2017-04-06T01:30:30.527Z,7.26
2017-04-06T01:31:41.761Z,7.16
2017-04-06T01:32:52.766Z,7.19
2017-04-06T01:34:03.774Z,7.22
2017-04-06T01:35:15.166Z,7.18
2017-04-06T01:36:26.178Z,7.15
2017-04-06T01:37:37.227Z,7.21
2017-04-06T01:38:48.234Z,7.13
2017-04-06T01:39:59.235Z,7.18
2017-04-06T01:41:10.254Z,7.09
2017-04-06T01:42:21.255Z,7.09
2017-04-06T01:43:32.298Z,7.03
2017-04-06T01:44:43.285Z,7.03
2017-04-06T01:45:54.276Z,7.01
2017-04-06T01:47:05.270Z,7
2017-04-06T01:48:16.260Z,7
2017-04-06T01:49:27.299Z,7
2017-04-06T01:50:38.497Z,7.01
2017-04-06T01:51:49.493Z,7.04
2017-04-06T01:53:00.502Z,6.97
2017-04-06T01:54:11.494Z,7.04
2017-04-06T01:55:22.540Z,7.08
2017-04-06T01:56:33.526Z,7
2017-04-06T01:57:44.717Z,7.08
2017-04-06T01:58:55.714Z,7.05
2017-04-06T02:00:06.729Z,7.03
2017-04-06T02:01:17.776Z,7.03
2017-04-06T02:02:28.778Z,7
2017-04-06T02:03:39.774Z,7.01
2017-04-06T02:04:50.959Z,7.01
2017-04-06T02:06:01.970Z,7.01
2017-04-06T02:07:13.020Z,7
2017-04-06T02:08:24.019Z,6.98
2017-04-06T02:09:35.030Z,6.94
2017-04-06T02:10:46.034Z,7
2017-04-06T02:11:57.035Z,6.9
2017-04-06T02:13:08.290Z,6.98
2017-04-06T02:14:19.289Z,6.97
2017-04-06T02:15:30.291Z,6.97
2017-04-06T02:16:41.485Z,6.94
2017-04-06T02:17:52.490Z,6.9
2017-04-06T02:19:03.944Z,6.79
2017-04-06T02:20:14.948Z,6.85
2017-04-06T02:21:25.947Z,6.82
2017-04-06T02:22:36.944Z,6.76
2017-04-06T02:23:47.944Z,6.76
2017-04-06T02:24:59.190Z,6.73
2017-04-06T02:26:10.390Z,6.82
2017-04-06T02:27:21.794Z,6.85
2017-04-06T02:28:32.996Z,6.82
2017-04-06T02:29:43.990Z,6.8
2017-04-06T02:30:54.976Z,6.82
2017-04-06T02:32:06.003Z,6.79
2017-04-06T02:33:17.189Z,6.82
2017-04-06T02:34:28.201Z,6.82
2017-04-06T02:35:39.258Z,6.8
2017-04-06T02:36:50.252Z,6.83
2017-04-06T02:38:01.244Z,6.73
2017-04-06T02:39:12.250Z,6.7
2017-04-06T02:40:23.242Z,6.72
2017-04-06T02:41:34.490Z,6.83
2017-04-06T02:42:45.486Z,6.83
2017-04-06T02:43:56.473Z,6.78
2017-04-06T02:45:07.465Z,6.82
2017-04-06T02:46:18.461Z,6.72
2017-04-06T02:47:29.501Z,6.73
2017-04-06T02:48:40.491Z,6.72
2017-04-06T02:49:51.487Z,6.8
2017-04-06T02:51:02.480Z,6.83
2017-04-06T02:52:13.678Z,6.82
2017-04-06T02:53:24.928Z,6.75
2017-04-06T02:54:35.928Z,6.79
2017-04-06T02:55:47.128Z,6.76
2017-04-06T02:56:58.128Z,6.76
2017-04-06T02:58:09.128Z,6.78
2017-04-06T02:59:20.174Z,6.73
2017-04-06T03:00:31.172Z,6.79
2017-04-06T03:01:42.156Z,6.8
2017-04-06T03:02:53.158Z,6.85
2017-04-06T03:04:04.151Z,6.85
2017-04-06T03:05:15.418Z,6.9
2017-04-06T03:06:26.431Z,6.76
2017-04-06T03:07:37.432Z,6.72
2017-04-06T03:08:48.424Z,6.82
2017-04-06T03:09:59.615Z,6.79
2017-04-06T03:11:10.875Z,6.76
2017-04-06T03:12:21.871Z,6.79
2017-04-06T03:13:32.877Z,6.72
2017-04-06T03:14:44.271Z,6.64
2017-04-06T03:15:55.273Z,6.78
2017-04-06T03:17:06.320Z,6.64
2017-04-06T03:18:17.315Z,6.73
2017-04-06T03:19:28.345Z,6.72
2017-04-06T03:20:39.343Z,6.73
2017-04-06T03:21:50.335Z,6.73
2017-04-06T03:23:01.585Z,6.62
2017-04-06T03:24:12.578Z,6.62
2017-04-06T03:25:23.585Z,6.72
2017-04-06T03:26:34.578Z,6.61
2017-04-06T03:27:45.573Z,6.72
2017-04-06T03:28:56.826Z,6.62
2017-04-06T03:30:07.822Z,6.68
2017-04-06T03:31:18.817Z,6.76
2017-04-06T03:32:30.010Z,6.76
2017-04-06T03:33:41.012Z,6.76
2017-04-06T03:34:52.054Z,6.75
2017-04-06T03:36:03.058Z,6.75
2017-04-06T03:37:14.066Z,6.82
2017-04-06T03:38:25.059Z,6.72
2017-04-06T03:39:36.053Z,6.75
2017-04-06T03:40:47.307Z,6.82
2017-04-06T03:41:58.494Z,6.82
2017-04-06T03:43:09.488Z,6.73
2017-04-06T03:44:20.890Z,6.76
2017-04-06T03:45:32.090Z,6.8
2017-04-06T03:46:43.335Z,6.75
2017-04-06T03:47:54.336Z,6.85
2017-04-06T03:49:05.332Z,6.73
2017-04-06T03:50:16.321Z,6.79
2017-04-06T03:51:27.316Z,6.78
2017-04-06T03:52:38.366Z,6.75
2017-04-06T03:53:49.363Z,6.76
2017-04-06T03:55:00.568Z,6.72
2017-04-06T03:56:11.779Z,6.73
2017-04-06T03:57:22.776Z,6.78
2017-04-06T03:58:34.025Z,6.72
2017-04-06T03:59:45.427Z,6.78
2017-04-06T04:00:56.420Z,6.82
2017-04-06T04:02:07.417Z,6.76
2017-04-06T04:03:18.417Z,6.8
2017-04-06T04:04:29.468Z,6.75
2017-04-06T04:05:40.455Z,6.79
2017-04-06T04:06:51.663Z,6.78
2017-04-06T04:08:02.655Z,6.82
2017-04-06T04:09:13.666Z,6.79
2017-04-06T04:10:24.728Z,6.72
2017-04-06T04:11:35.728Z,6.8
2017-04-06T04:12:46.928Z,6.83
2017-04-06T04:13:57.915Z,6.82
2017-04-06T04:15:08.909Z,6.78
2017-04-06T04:16:19.942Z,6.79
2017-04-06T04:17:30.942Z,6.76
2017-04-06T04:18:41.939Z,6.78
2017-04-06T04:19:53.129Z,6.79
2017-04-06T04:21:04.123Z,6.76
2017-04-06T04:22:15.168Z,6.72
2017-04-06T04:23:26.157Z,6.73
2017-04-06T04:24:37.149Z,6.82
2017-04-06T04:25:48.141Z,6.76
2017-04-06T04:26:59.144Z,6.85
2017-04-06T04:28:10.208Z,6.82
2017-04-06T04:29:21.202Z,6.72
2017-04-06T04:30:32.199Z,6.76
2017-04-06T04:31:43.190Z,6.68
2017-04-06T04:32:54.190Z,6.58
2017-04-06T04:34:05.439Z,6.78
2017-04-06T04:35:16.433Z,6.64
2017-04-06T04:36:27.431Z,6.62
2017-04-06T04:37:38.447Z,6.72
2017-04-06T04:38:49.441Z,6.6
2017-04-06T04:40:00.494Z,6.68
2017-04-06T04:41:11.706Z,6.67
2017-04-06T04:42:22.703Z,6.67
2017-04-06T04:43:33.706Z,6.67
2017-04-06T04:44:44.711Z,6.67
2017-04-06T04:45:55.705Z,6.62
2017-04-06T04:47:06.709Z,6.58
2017-04-06T04:48:17.712Z,6.62
2017-04-06T04:49:28.695Z,6.55
2017-04-06T04:50:39.943Z,6.57
2017-04-06T04:51:50.940Z,6.57
2017-04-06T04:53:01.932Z,6.64
2017-04-06T04:54:13.121Z,6.57
2017-04-06T04:55:24.328Z,6.58
2017-04-06T04:56:35.372Z,6.49
2017-04-06T04:57:46.374Z,6.49
2017-04-06T04:58:57.364Z,6.58
2017-04-06T05:00:08.353Z,6.52
2017-04-06T05:01:19.356Z,6.54
2017-04-06T05:02:30.602Z,6.55
2017-04-06T05:03:41.604Z,6.55
2017-04-06T05:04:52.610Z,6.57
2017-04-06T05:06:03.612Z,6.55
2017-04-06T05:07:14.825Z,6.65
2017-04-06T05:08:26.484Z,6.62
2017-04-06T05:09:37.484Z,6.65
2017-04-06T05:10:48.483Z,6.62
2017-04-06T05:11:59.489Z,6.58
2017-04-06T05:13:10.494Z,6.61
2017-04-06T05:14:21.947Z,6.61
2017-04-06T05:15:32.954Z,6.62
2017-04-06T05:16:43.967Z,6.68
2017-04-06T05:17:54.970Z,6.68
2017-04-06T05:19:05.968Z,6.61
2017-04-06T05:20:17.213Z,6.61
2017-04-06T05:21:28.423Z,6.62
2017-04-06T05:22:39.425Z,6.68
2017-04-06T05:23:50.427Z,6.68
2017-04-06T05:25:01.416Z,6.65
2017-04-06T05:26:12.486Z,6.73
2017-04-06T05:27:23.688Z,6.82
2017-04-06T05:28:34.694Z,6.83
2017-04-06T05:29:45.693Z,6.75
2017-04-06T05:30:56.697Z,6.83
2017-04-06T05:32:07.741Z,6.94
2017-04-06T05:33:18.944Z,6.94
2017-04-06T05:34:30.142Z,6.97
2017-04-06T05:35:41.138Z,7.04
2017-04-06T05:36:52.345Z,7.15
2017-04-06T05:38:03.396Z,7.22
2017-04-06T05:39:14.385Z,7.26
2017-04-06T05:40:25.590Z,7.36
2017-04-06T05:41:36.591Z,7.29
2017-04-06T05:42:47.594Z,7.33
2017-04-06T05:43:59.248Z,7.37
2017-04-06T05:45:10.254Z,7.47
2017-04-06T05:46:21.469Z,7.45
2017-04-06T05:47:32.468Z,7.45
2017-04-06T05:48:43.468Z,7.52
2017-04-06T05:49:54.530Z,7.47
2017-04-06T05:51:05.516Z,7.34
2017-04-06T05:52:16.525Z,7.34
2017-04-06T05:53:27.518Z,7.36
2017-04-06T05:54:38.522Z,7.4
2017-04-06T05:55:49.777Z,7.36
2017-04-06T05:57:00.787Z,7.26
2017-04-06T05:58:11.793Z,7.21
2017-04-06T05:59:22.989Z,7.29
2017-04-06T06:00:33.988Z,7.23
2017-04-06T06:01:45.032Z,7.19
2017-04-06T06:02:56.226Z,7.19
2017-04-06T06:04:07.451Z,7.26
2017-04-06T06:05:18.453Z,7.21
2017-04-06T06:06:29.660Z,7.22
2017-04-06T06:07:40.700Z,7.16
2017-04-06T06:08:51.686Z,7.19
2017-04-06T06:10:02.894Z,7.21
2017-04-06T06:11:13.900Z,7.26
2017-04-06T06:12:24.902Z,7.22
2017-04-06T06:13:35.954Z,7.22
2017-04-06T06:14:46.956Z,7.21
2017-04-06T06:15:58.159Z,7.22
2017-04-06T06:17:09.156Z,7.37
2017-04-06T06:18:20.158Z,7.33
2017-04-06T06:19:31.210Z,7.41
2017-04-06T06:20:42.417Z,7.34
2017-04-06T06:21:53.418Z,7.39
2017-04-06T06:23:04.432Z,7.4
2017-04-06T06:24:15.435Z,7.41
2017-04-06T06:25:26.675Z,7.4
2017-04-06T06:26:37.669Z,7.39
2017-04-06T06:27:48.710Z,7.44
2017-04-06T06:28:59.729Z,7.37
2017-04-06T06:30:10.729Z,7.4
2017-04-06T06:31:22.175Z,7.44
2017-04-06T06:32:33.175Z,7.47
2017-04-06T06:33:44.376Z,7.47
2017-04-06T06:34:55.582Z,7.47
2017-04-06T06:36:06.794Z,7.55
2017-04-06T06:37:18.043Z,7.54
2017-04-06T06:38:29.232Z,7.59
2017-04-06T06:39:40.430Z,7.71
2017-04-06T06:40:51.437Z,7.78
2017-04-06T06:42:02.439Z,7.82
2017-04-06T06:43:13.494Z,7.92
2017-04-06T06:44:24.681Z,7.99
2017-04-06T06:45:35.699Z,8.14
2017-04-06T06:46:46.697Z,8.26
2017-04-06T06:47:57.691Z,8.29
2017-04-06T06:49:08.940Z,8.49
2017-04-06T06:50:19.957Z,8.54
2017-04-06T06:51:30.962Z,8.64
2017-04-06T06:52:41.961Z,8.83
2017-04-06T06:53:53.162Z,8.97
2017-04-06T06:55:04.219Z,9.14
2017-04-06T06:56:15.426Z,9.17
2017-04-06T06:57:26.432Z,9.2
2017-04-06T06:58:37.437Z,9.34
2017-04-06T06:59:48.433Z,9.26
2017-04-06T07:00:59.480Z,9.39
2017-04-06T07:02:10.691Z,9.42
2017-04-06T07:03:21.697Z,9.57
2017-04-06T07:04:32.906Z,9.66
2017-04-06T07:05:43.955Z,9.78
2017-04-06T07:06:54.950Z,9.84
2017-04-06T07:08:06.152Z,9.98
2017-04-06T07:09:17.170Z,10.07
2017-04-06T07:10:28.168Z,10
2017-04-06T07:11:39.618Z,9.95
2017-04-06T07:12:50.623Z,9.98
2017-04-06T07:14:01.624Z,10.17
2017-04-06T07:15:12.630Z,10.29
2017-04-06T07:16:23.631Z,10.36
2017-04-06T07:17:34.683Z,10.49
2017-04-06T07:18:45.686Z,10.51
2017-04-06T07:19:56.694Z,10.47
2017-04-06T07:21:07.694Z,10.41
2017-04-06T07:22:18.699Z,10.41
2017-04-06T07:23:29.949Z,10.33
2017-04-06T07:24:40.957Z,10.33
2017-04-06T07:25:51.964Z,10.32
2017-04-06T07:27:02.967Z,10.36
2017-04-06T07:28:14.371Z,10.33
2017-04-06T07:29:25.427Z,10.26
2017-04-06T07:30:36.426Z,10.35
2017-04-06T07:31:47.434Z,10.32
2017-04-06T07:32:58.439Z,10.25
2017-04-06T07:34:09.476Z,10.15
2017-04-06T07:35:20.526Z,10.07
2017-04-06T07:36:31.539Z,9.88
2017-04-06T07:37:42.543Z,9.88
2017-04-06T07:38:53.546Z,9.88
2017-04-06T07:40:04.548Z,9.8
2017-04-06T07:41:15.806Z,9.74
2017-04-06T07:42:27.009Z,9.9
2017-04-06T07:43:38.012Z,9.82
2017-04-06T07:44:49.017Z,9.85
2017-04-06T07:46:00.026Z,9.84
2017-04-06T07:47:11.278Z,9.89
2017-04-06T07:48:22.294Z,9.95
2017-04-06T07:49:33.300Z,9.81
2017-04-06T07:50:44.335Z,9.88
2017-04-06T07:51:55.346Z,9.89
2017-04-06T07:53:06.607Z,10.07
2017-04-06T07:54:17.615Z,10.33
2017-04-06T07:55:28.629Z,10.97
2017-04-06T07:56:39.645Z,11.41
2017-04-06T07:57:50.656Z,11.57
2017-04-06T07:59:02.141Z,11.45
2017-04-06T08:00:13.148Z,11.28
2017-04-06T08:01:24.140Z,11.13
2017-04-06T08:02:35.156Z,11.02
2017-04-06T08:03:46.158Z,11.02
2017-04-06T08:04:57.211Z,11.18
2017-04-06T08:06:08.226Z,11.15
2017-04-06T08:07:19.227Z,11.24
2017-04-06T08:08:30.222Z,11.2
2017-04-06T08:09:41.224Z,11.24
2017-04-06T08:10:52.235Z,11.16
2017-04-06T08:12:03.240Z,11.03
2017-04-06T08:13:14.429Z,11
2017-04-06T08:14:25.435Z,10.97
2017-04-06T08:15:36.453Z,11.03
2017-04-06T08:16:47.718Z,11.03
2017-04-06T08:17:58.723Z,11.2
2017-04-06T08:19:09.724Z,11.75
2017-04-06T08:20:20.733Z,12.11
2017-04-06T08:21:31.746Z,12.31
2017-04-06T08:22:43.011Z,12.52
2017-04-06T08:23:54.021Z,12.59
2017-04-06T08:25:05.021Z,12.58
2017-04-06T08:26:16.023Z,12.45
2017-04-06T08:27:27.032Z,12.13
2017-04-06T08:28:38.091Z,11.88
2017-04-06T08:29:49.084Z,11.56
2017-04-06T08:31:00.086Z,11.46
2017-04-06T08:32:11.093Z,11.28
2017-04-06T08:33:22.092Z,11.05
2017-04-06T08:34:33.148Z,11.1
2017-04-06T08:35:44.145Z,10.95
2017-04-06T08:36:55.144Z,10.87
2017-04-06T08:38:06.146Z,10.9
2017-04-06T08:39:17.157Z,10.84
2017-04-06T08:40:28.611Z,10.73
2017-04-06T08:41:39.610Z,10.72
2017-04-06T08:42:50.822Z,10.8
2017-04-06T08:44:01.832Z,10.8
2017-04-06T08:45:13.068Z,10.77
2017-04-06T08:46:24.066Z,10.66
2017-04-06T08:47:35.078Z,10.76
2017-04-06T08:48:46.280Z,10.76
2017-04-06T08:49:57.287Z,10.83
2017-04-06T08:51:08.550Z,10.77
2017-04-06T08:52:19.554Z,10.73
2017-04-06T08:53:30.560Z,10.79
2017-04-06T08:54:41.970Z,10.72
2017-04-06T08:55:52.972Z,10.76
2017-04-06T08:57:04.025Z,10.76
2017-04-06T08:58:15.034Z,10.83
2017-04-06T08:59:26.026Z,10.83
2017-04-06T09:00:37.231Z,10.8
2017-04-06T09:01:48.240Z,10.9
2017-04-06T09:02:59.448Z,10.9
2017-04-06T09:04:10.456Z,11.05
2017-04-06T09:05:21.463Z,11
2017-04-06T09:06:32.470Z,11.05
2017-04-06T09:07:43.721Z,11.38
2017-04-06T09:08:54.719Z,11.53
2017-04-06T09:10:05.725Z,11.68
2017-04-06T09:11:16.965Z,11.68
2017-04-06T09:12:27.966Z,11.67
2017-04-06T09:13:39.024Z,11.67
2017-04-06T09:14:50.228Z,11.7
2017-04-06T09:16:01.430Z,11.73
2017-04-06T09:17:12.443Z,11.66
2017-04-06T09:18:23.449Z,11.59
2017-04-06T09:19:34.702Z,11.52
2017-04-06T09:20:45.714Z,11.45
2017-04-06T09:21:56.720Z,11.43
2017-04-06T09:23:07.724Z,11.43
2017-04-06T09:24:18.940Z,11.43
2017-04-06T09:25:29.991Z,11.42
2017-04-06T09:26:40.992Z,11.46
2017-04-06T09:27:51.993Z,11.45
2017-04-06T09:29:03.198Z,11.49
2017-04-06T09:30:14.424Z,11.53
2017-04-06T09:31:25.679Z,11.63
2017-04-06T09:32:36.696Z,11.57
2017-04-06T09:33:47.704Z,11.63
2017-04-06T09:34:58.907Z,11.59
2017-04-06T09:36:10.107Z,11.71
2017-04-06T09:37:21.109Z,11.91
2017-04-06T09:38:32.109Z,12
2017-04-06T09:39:43.121Z,12.03
2017-04-06T09:40:54.324Z,12.04
2017-04-06T09:42:05.802Z,12.15
2017-04-06T09:43:16.810Z,12.26
2017-04-06T09:44:27.818Z,12.25
2017-04-06T09:45:39.253Z,12.33
2017-04-06T09:46:50.495Z,12.26
2017-04-06T09:48:01.751Z,12.29
2017-04-06T09:49:12.752Z,12.37
2017-04-06T09:50:24.155Z,12.29
2017-04-06T09:51:35.151Z,12.34
2017-04-06T09:52:46.365Z,12.28
2017-04-06T09:53:57.450Z,12.34
2017-04-06T09:55:08.468Z,12.38
2017-04-06T09:56:19.481Z,12.4
2017-04-06T09:57:30.694Z,12.38
2017-04-06T09:58:41.701Z,12.4
2017-04-06T09:59:52.961Z,12.38
2017-04-06T10:01:03.962Z,12.41
2017-04-06T10:02:14.995Z,12.41
2017-04-06T10:03:26.206Z,12.41
2017-04-06T10:04:37.408Z,12.48
2017-04-06T10:05:48.457Z,12.55
2017-04-06T10:06:59.478Z,12.58
2017-04-06T10:08:10.499Z,12.61
2017-04-06T10:09:21.517Z,12.94
2017-04-06T10:10:32.959Z,13.47
2017-04-06T10:11:44.059Z,13.88
2017-04-06T10:12:55.071Z,14.49
2017-04-06T10:14:06.077Z,14.95
2017-04-06T10:15:17.095Z,14.95
2017-04-06T10:16:28.310Z,14.95
2017-04-06T10:17:39.369Z,14.86
2017-04-06T10:18:50.369Z,14.48
2017-04-06T10:20:01.366Z,14.46
2017-04-06T10:21:12.367Z,14.26
2017-04-06T10:22:23.377Z,13.83
2017-04-06T10:23:34.647Z,13.69
2017-04-06T10:24:45.877Z,13.58
2017-04-06T10:25:56.890Z,13.48
2017-04-06T10:27:07.894Z,13.25
2017-04-06T10:28:18.906Z,13.42
2017-04-06T10:29:29.956Z,13.31
2017-04-06T10:30:41.377Z,13.27
2017-04-06T10:31:52.382Z,13.25
2017-04-06T10:33:03.995Z,13.28
2017-04-06T10:34:15.007Z,13.17
2017-04-06T10:35:26.279Z,13.17
2017-04-06T10:36:37.281Z,13.2
2017-04-06T10:37:48.294Z,13.27
2017-04-06T10:38:59.309Z,13.19
2017-04-06T10:40:10.316Z,13.28
2017-04-06T10:41:21.388Z,13.47
2017-04-06T10:42:32.395Z,13.86
2017-04-06T10:43:43.404Z,14.33
2017-04-06T10:44:54.424Z,14.8
2017-04-06T10:46:05.440Z,15.19
2017-04-06T10:47:16.907Z,15.6
2017-04-06T10:48:27.925Z,15.86
2017-04-06T10:49:38.939Z,16.1
2017-04-06T10:50:49.950Z,16.04
2017-04-06T10:52:01.155Z,15.88
2017-04-06T10:53:12.223Z,15.65
2017-04-06T10:54:23.250Z,15.44
2017-04-06T10:55:34.277Z,15.43
2017-04-06T10:56:45.520Z,15.35
2017-04-06T10:57:56.529Z,15.26
2017-04-06T10:59:07.983Z,15.23
2017-04-06T11:00:18.999Z,15.07
2017-04-06T11:01:30.008Z,15.19
2017-04-06T11:02:41.020Z,14.98
2017-04-06T11:03:52.037Z,15.1
2017-04-06T11:05:03.100Z,15.31
2017-04-06T11:06:14.333Z,15.77
2017-04-06T11:07:25.355Z,16.11
2017-04-06T11:08:36.572Z,16.65
2017-04-06T11:09:47.581Z,16.8
2017-04-06T11:10:58.852Z,16.97
2017-04-06T11:12:09.867Z,17.32
2017-04-06T11:13:20.889Z,17.77
2017-04-06T11:14:31.930Z,18.05
2017-04-06T11:15:42.937Z,17.94
2017-04-06T11:16:54.207Z,17.74
2017-04-06T11:18:05.224Z,17.57
2017-04-06T11:19:16.241Z,17.35
2017-04-06T11:20:27.452Z,17.2
2017-04-06T11:21:38.479Z,17.06
2017-04-06T11:22:49.543Z,16.92
2017-04-06T11:24:00.559Z,16.66
2017-04-06T11:25:11.583Z,16.47
2017-04-06T11:26:22.634Z,16.34
2017-04-06T11:27:33.652Z,16.39
2017-04-06T11:28:44.715Z,16.57
2017-04-06T11:29:55.928Z,16.69
2017-04-06T11:31:06.942Z,16.45
2017-04-06T11:32:17.959Z,16.36
2017-04-06T11:33:28.968Z,16.11
2017-04-06T11:34:40.435Z,15.88
2017-04-06T11:35:51.431Z,15.8
2017-04-06T11:37:02.447Z,15.92
2017-04-06T11:38:13.452Z,16.08
2017-04-06T11:39:24.467Z,16.26
2017-04-06T11:40:35.531Z,16.55
2017-04-06T11:41:46.745Z,16.84
2017-04-06T11:42:57.949Z,17.15
2017-04-06T11:44:09.180Z,17.45
2017-04-06T11:45:20.195Z,17.84
2017-04-06T11:46:31.265Z,18.06
2017-04-06T11:47:42.271Z,18.19
2017-04-06T11:48:53.491Z,18.21
2017-04-06T11:50:04.711Z,18.19
2017-04-06T11:51:15.723Z,18.05
2017-04-06T11:52:26.980Z,17.96
2017-04-06T11:53:38.000Z,17.73
2017-04-06T11:54:49.011Z,17.43
2017-04-06T11:56:00.231Z,17.32
2017-04-06T11:57:11.260Z,17.17
2017-04-06T11:58:22.318Z,17.03
2017-04-06T11:59:33.338Z,17.3
2017-04-06T12:00:44.554Z,17.35
2017-04-06T12:01:55.572Z,17.39
2017-04-06T12:03:06.591Z,17.52
2017-04-06T12:04:17.647Z,17.54
2017-04-06T12:05:28.672Z,17.49
2017-04-06T12:06:39.683Z,17.28
2017-04-06T12:07:50.709Z,17.09
2017-04-06T12:09:02.119Z,16.92
2017-04-06T12:10:13.616Z,16.9
2017-04-06T12:11:24.620Z,16.99
2017-04-06T12:12:35.658Z,17.12
2017-04-06T12:13:46.663Z,17.21
2017-04-06T12:14:57.683Z,17.43
2017-04-06T12:16:08.949Z,17.32
2017-04-06T12:17:19.967Z,17.27
2017-04-06T12:18:30.966Z,16.91
2017-04-06T12:19:42.189Z,16.8
2017-04-06T12:20:53.401Z,16.67
2017-04-06T12:22:04.464Z,16.9
2017-04-06T12:23:15.683Z,16.92
2017-04-06T12:24:26.702Z,16.95
2017-04-06T12:25:37.715Z,16.92
2017-04-06T12:26:48.715Z,16.97
2017-04-06T12:27:59.983Z,17.09
2017-04-06T12:29:10.983Z,17.1
2017-04-06T12:30:21.992Z,17.36
2017-04-06T12:31:33.018Z,17.6
2017-04-06T12:32:44.043Z,17.71
2017-04-06T12:33:55.117Z,17.66
2017-04-06T12:35:06.128Z,17.31
2017-04-06T12:36:17.144Z,16.97
2017-04-06T12:37:28.148Z,16.94
2017-04-06T12:38:39.169Z,16.62
2017-04-06T12:39:50.232Z,16.47
2017-04-06T12:41:01.252Z,16.29
2017-04-06T12:42:12.472Z,16.13
2017-04-06T12:43:23.494Z,16.07
2017-04-06T12:44:34.514Z,16.37
2017-04-06T12:45:45.529Z,16.66
2017-04-06T12:46:56.536Z,16.81
2017-04-06T12:48:07.541Z,16.97
2017-04-06T12:49:18.750Z,17.27
2017-04-06T12:50:29.815Z,17.49
2017-04-06T12:51:40.813Z,17.46
2017-04-06T12:52:51.828Z,17.43
2017-04-06T12:54:03.035Z,17.54
2017-04-06T12:55:14.053Z,17.52
2017-04-06T12:56:25.717Z,17.4
2017-04-06T12:57:36.742Z,17.36
2017-04-06T12:58:47.744Z,17.3
2017-04-06T12:59:58.752Z,17.1
2017-04-06T13:01:09.760Z,17.3
2017-04-06T13:02:20.830Z,17.27
2017-04-06T13:03:31.837Z,17.13
2017-04-06T13:04:42.845Z,17.03
2017-04-06T13:05:53.902Z,16.87
2017-04-06T13:07:04.914Z,16.72
2017-04-06T13:08:16.377Z,16.52
2017-04-06T13:09:27.593Z,16.62
2017-04-06T13:10:38.613Z,16.63
2017-04-06T13:11:49.628Z,16.76
2017-04-06T13:13:00.640Z,16.9
2017-04-06T13:14:11.731Z,16.94
2017-04-06T13:15:22.748Z,16.91
2017-04-06T13:16:33.755Z,16.67
2017-04-06T13:17:44.762Z,16.63
2017-04-06T13:18:55.763Z,16.58
2017-04-06T13:20:06.828Z,16.52
2017-04-06T13:21:18.034Z,16.39
2017-04-06T13:22:29.045Z,16.33
2017-04-06T13:23:40.077Z,16.33
2017-04-06T13:24:51.084Z,16.08
2017-04-06T13:26:02.355Z,16.02
2017-04-06T13:27:13.575Z,15.77
2017-04-06T13:28:24.586Z,15.55
2017-04-06T13:29:35.600Z,15.3
2017-04-06T13:30:46.821Z,15.18
2017-04-06T13:31:58.092Z,15.15
2017-04-06T13:33:09.105Z,15.15
2017-04-06T13:34:20.117Z,15.18
2017-04-06T13:35:31.124Z,15.2
2017-04-06T13:36:42.128Z,15.02
2017-04-06T13:37:53.387Z,14.95
2017-04-06T13:39:04.408Z,15.07
2017-04-06T13:40:15.422Z,15.19
2017-04-06T13:41:26.431Z,15.27
2017-04-06T13:42:37.645Z,15.43
2017-04-06T13:43:48.709Z,15.49
2017-04-06T13:44:59.710Z,15.38
2017-04-06T13:46:11.124Z,15.37
2017-04-06T13:47:22.141Z,15.35
2017-04-06T13:48:33.353Z,15.51
2017-04-06T13:49:44.401Z,15.53
2017-04-06T13:50:55.407Z,15.52
2017-04-06T13:52:06.432Z,15.83
2017-04-06T13:53:17.440Z,15.92
2017-04-06T13:54:28.851Z,15.95
2017-04-06T13:55:40.117Z,15.95
2017-04-06T13:56:51.532Z,16.07
2017-04-06T13:58:02.540Z,16.13
2017-04-06T13:59:13.555Z,16.4
2017-04-06T14:00:24.560Z,16.4
2017-04-06T14:01:35.812Z,16.39
2017-04-06T14:02:46.811Z,16.11
2017-04-06T14:03:58.022Z,16.08
2017-04-06T14:05:09.017Z,15.92
2017-04-06T14:06:20.220Z,15.88
2017-04-06T14:07:31.281Z,15.84
2017-04-06T14:08:42.286Z,15.62
2017-04-06T14:09:53.290Z,15.55
2017-04-06T14:11:04.506Z,15.52
2017-04-06T14:12:15.524Z,15.44
2017-04-06T14:13:26.791Z,15.34
2017-04-06T14:14:37.802Z,15.33
2017-04-06T14:15:48.819Z,15.33
2017-04-06T14:16:59.819Z,15.26
2017-04-06T14:18:10.832Z,15.19
2017-04-06T14:19:21.899Z,15.08
2017-04-06T14:20:32.911Z,14.97
2017-04-06T14:21:43.942Z,14.89
2017-04-06T14:22:54.936Z,14.97
2017-04-06T14:24:05.944Z,14.83
2017-04-06T14:25:17.210Z,14.67
2017-04-06T14:26:28.215Z,14.6
2017-04-06T14:27:39.229Z,14.59
2017-04-06T14:28:50.243Z,14.59
2017-04-06T14:30:01.248Z,14.52
2017-04-06T14:31:12.324Z,14.49
2017-04-06T14:32:23.328Z,14.56
2017-04-06T14:33:34.339Z,14.56
2017-04-06T14:34:45.354Z,14.51
2017-04-06T14:35:56.365Z,14.53
2017-04-06T14:37:07.428Z,14.66
2017-04-06T14:38:18.452Z,14.63
2017-04-06T14:39:29.671Z,14.64
2017-04-06T14:40:40.675Z,14.67
2017-04-06T14:41:51.878Z,14.69
2017-04-06T14:43:03.148Z,14.86
2017-04-06T14:44:14.356Z,14.95
2017-04-06T14:45:25.358Z,14.97
2017-04-06T14:46:36.580Z,14.97
2017-04-06T14:47:47.583Z,14.98
2017-04-06T14:48:58.685Z,14.94
2017-04-06T14:50:10.091Z,14.83
2017-04-06T14:51:21.102Z,14.83
2017-04-06T14:52:32.301Z,14.77
2017-04-06T14:53:43.507Z,14.67
2017-04-06T14:54:54.760Z,14.64
2017-04-06T14:56:05.972Z,14.63
2017-04-06T14:57:16.977Z,14.66
2017-04-06T14:58:27.982Z,14.63
2017-04-06T14:59:38.989Z,14.79
2017-04-06T15:00:49.990Z,14.63
2017-04-06T15:02:01.005Z,14.56
2017-04-06T15:03:12.005Z,14.46
2017-04-06T15:04:23.011Z,14.6
2017-04-06T15:05:34.100Z,14.63
2017-04-06T15:06:45.312Z,14.56
2017-04-06T15:07:56.320Z,14.49
2017-04-06T15:09:07.328Z,14.45
2017-04-06T15:10:18.342Z,14.44
2017-04-06T15:11:29.599Z,14.45
2017-04-06T15:12:40.614Z,14.42
2017-04-06T15:13:51.624Z,14.49
2017-04-06T15:15:02.646Z,14.51
2017-04-06T15:16:13.653Z,14.49
2017-04-06T15:17:24.720Z,14.49
2017-04-06T15:18:35.724Z,14.46
2017-04-06T15:19:46.727Z,14.38
2017-04-06T15:20:57.729Z,14.26
2017-04-06T15:22:08.734Z,14.3
2017-04-06T15:23:19.990Z,14.33
2017-04-06T15:24:31.202Z,14.34
2017-04-06T15:25:42.223Z,14.38
2017-04-06T15:26:53.231Z,14.24
2017-04-06T15:28:04.427Z,14.3
2017-04-06T15:29:15.683Z,14.28
2017-04-06T15:30:26.720Z,14.12
2017-04-06T15:31:37.723Z,13.97
2017-04-06T15:32:48.730Z,14.02